createdAt,value
2023-05-13T00:02:13.680Z,88154.59
2023-05-13T00:04:58.710Z,88149.72
2023-05-13T00:07:43.615Z,88158.44
2023-05-13T00:10:28.658Z,88154.44
2023-05-13T00:13:13.683Z,88160.00
2023-05-13T00:15:58.829Z,88150.94
2023-05-13T00:18:43.829Z,88150.25
2023-05-13T00:21:28.842Z,88153.22
2023-05-13T00:24:13.795Z,88156.16
2023-05-13T00:26:58.791Z,88159.66
2023-05-13T00:29:43.851Z,88161.72
2023-05-13T00:32:28.743Z,88165.56
2023-05-13T00:35:13.814Z,88164.50
2023-05-13T00:37:58.754Z,88166.94
2023-05-13T00:40:43.754Z,88169.53
2023-05-13T00:43:28.632Z,88163.97
2023-05-13T00:46:13.611Z,88162.59
2023-05-13T00:48:58.644Z,88164.88
2023-05-13T00:51:43.551Z,88165.38
2023-05-13T00:54:28.546Z,88167.78
2023-05-13T00:57:13.502Z,88174.56
2023-05-13T00:59:58.740Z,88176.81
2023-05-13T01:02:43.777Z,88182.56
2023-05-13T01:05:28.948Z,88184.63
2023-05-13T01:08:13.981Z,88186.88
2023-05-13T01:10:59.036Z,88183.25
2023-05-13T01:13:44.253Z,88178.03
2023-05-13T01:16:29.236Z,88179.91
2023-05-13T01:19:14.338Z,88179.56
2023-05-13T01:21:59.259Z,88182.50
2023-05-13T01:24:44.349Z,88179.56
2023-05-13T01:27:29.154Z,88183.72
2023-05-13T01:30:14.325Z,88184.38
2023-05-13T01:32:59.320Z,88181.06
2023-05-13T01:35:44.170Z,88182.63
2023-05-13T01:38:29.288Z,88185.75
2023-05-13T01:41:14.259Z,88180.53
2023-05-13T01:43:59.344Z,88181.97
2023-05-13T01:46:44.421Z,88183.00
2023-05-13T01:49:29.449Z,88177.78
2023-05-13T01:52:14.475Z,88177.22
2023-05-13T01:54:59.488Z,88179.69
2023-05-13T01:57:44.674Z,88181.63
2023-05-13T02:00:30.234Z,88187.19
2023-05-13T02:03:15.569Z,88185.97
2023-05-13T02:06:00.320Z,88188.75
2023-05-13T02:08:45.139Z,88183.88
2023-05-13T02:11:30.130Z,88183.88
2023-05-13T02:14:15.061Z,88195.88
2023-05-13T02:17:00.147Z,88189.09
2023-05-13T02:19:45.071Z,88191.34
2023-05-13T02:22:30.117Z,88188.94
2023-05-13T02:25:15.120Z,88183.19
2023-05-13T02:28:00.224Z,88185.78
2023-05-13T02:30:45.254Z,88181.28
2023-05-13T02:33:30.325Z,88174.31
2023-05-13T02:36:15.198Z,88177.78
2023-05-13T02:39:00.178Z,88177.59
2023-05-13T02:41:45.211Z,88182.28
2023-05-13T02:44:30.239Z,88178.13
2023-05-13T02:47:15.319Z,88180.03
2023-05-13T02:50:00.279Z,88175.50
2023-05-13T02:52:45.366Z,88178.97
2023-05-13T02:55:30.437Z,88173.06
2023-05-13T02:58:15.440Z,88178.75
2023-05-13T03:01:00.365Z,88178.94
2023-05-13T03:03:45.314Z,88178.75
2023-05-13T03:06:30.416Z,88180.31
2023-05-13T03:09:15.406Z,88183.44
2023-05-13T03:12:00.443Z,88186.38
2023-05-13T03:14:45.470Z,88192.09
2023-05-13T03:17:30.705Z,88191.59
2023-05-13T03:20:15.507Z,88188.97
2023-05-13T03:23:00.599Z,88186.50
2023-05-13T03:25:45.642Z,88190.81
2023-05-13T03:28:30.629Z,88190.47
2023-05-13T03:31:15.765Z,88188.00
2023-05-13T03:34:00.684Z,88185.38
2023-05-13T03:36:45.844Z,88185.94
2023-05-13T03:39:30.759Z,88190.50
2023-05-13T03:42:15.971Z,88194.31
2023-05-13T03:45:00.940Z,88192.75
2023-05-13T03:47:45.918Z,88196.59
2023-05-13T03:50:30.960Z,88195.22
2023-05-13T03:53:15.893Z,88197.81
2023-05-13T03:56:00.972Z,88192.97
2023-05-13T03:58:45.990Z,88189.88
2023-05-13T04:01:31.248Z,88191.28
2023-05-13T04:04:16.105Z,88189.41
2023-05-13T04:07:01.160Z,88192.88
2023-05-13T04:09:46.227Z,88207.16
2023-05-13T04:12:31.054Z,88205.75
2023-05-13T04:15:16.260Z,88204.53
2023-05-13T04:18:01.234Z,88205.56
2023-05-13T04:20:46.314Z,88209.75
2023-05-13T04:23:31.395Z,88204.00
2023-05-13T04:26:16.401Z,88212.69
2023-05-13T04:29:01.322Z,88219.59
2023-05-13T04:31:46.337Z,88226.91
2023-05-13T04:34:31.332Z,88239.97
2023-05-13T04:37:16.292Z,88230.09
2023-05-13T04:40:01.445Z,88230.81
2023-05-13T04:42:46.433Z,88238.63
2023-05-13T04:45:31.461Z,88237.94
2023-05-13T04:48:16.399Z,88235.38
2023-05-13T04:51:01.502Z,88251.53
2023-05-13T04:53:46.916Z,88246.66
2023-05-13T04:56:31.937Z,88255.84
2023-05-13T04:59:17.039Z,88242.81
2023-05-13T05:02:02.152Z,88245.94
2023-05-13T05:04:47.179Z,88251.88
2023-05-13T05:07:32.153Z,88255.03
2023-05-13T05:10:17.269Z,88252.63
2023-05-13T05:13:02.262Z,88261.88
2023-05-13T05:15:47.351Z,88256.66
2023-05-13T05:18:32.393Z,88257.56
2023-05-13T05:21:17.358Z,88266.25
2023-05-13T05:24:02.613Z,88267.81
2023-05-13T05:26:47.416Z,88271.47
2023-05-13T05:29:32.430Z,88269.94
2023-05-13T05:32:17.211Z,88279.16
2023-05-13T05:35:02.364Z,88276.00
2023-05-13T05:37:47.350Z,88276.38
2023-05-13T05:40:32.172Z,88279.31
2023-05-13T05:43:17.754Z,88285.75
2023-05-13T05:46:02.768Z,88278.44
2023-05-13T05:48:47.840Z,88287.00
2023-05-13T05:51:32.795Z,88282.63
2023-05-13T05:54:17.951Z,88286.81
2023-05-13T05:57:02.940Z,88285.94
2023-05-13T05:59:48.059Z,88289.94
2023-05-13T06:02:32.990Z,88291.31
2023-05-13T06:05:17.775Z,88288.66
2023-05-13T06:08:03.046Z,88286.03
2023-05-13T06:10:47.947Z,88291.75
2023-05-13T06:13:32.949Z,88292.81
2023-05-13T06:16:17.943Z,88295.22
2023-05-13T06:19:02.894Z,88296.38
2023-05-13T06:21:47.752Z,88295.78
2023-05-13T06:24:32.612Z,88301.09
2023-05-13T06:27:17.594Z,88298.72
2023-05-13T06:30:02.480Z,88303.16
2023-05-13T06:32:57.737Z,88296.94
2023-05-13T06:35:46.185Z,88299.97
2023-05-13T06:38:31.166Z,88301.91
2023-05-13T06:41:16.061Z,88302.59
2023-05-13T06:44:01.216Z,88304.66
2023-05-13T06:46:46.218Z,88301.34
2023-05-13T06:49:31.180Z,88301.75
2023-05-13T06:52:16.119Z,88301.75
2023-05-13T06:55:01.080Z,88303.84
2023-05-13T06:57:46.227Z,88309.63
2023-05-13T07:00:31.124Z,88307.69
2023-05-13T07:03:16.259Z,88305.91
2023-05-13T07:06:00.992Z,88294.88
2023-05-13T07:08:45.960Z,88300.81
2023-05-13T07:11:30.960Z,88300.00
2023-05-13T07:14:16.036Z,88295.88
2023-05-13T07:17:00.940Z,88310.06
2023-05-13T07:19:45.912Z,88314.94
2023-05-13T07:22:31.094Z,88308.31
2023-05-13T07:25:16.027Z,88309.38
2023-05-13T07:28:00.996Z,88308.25
2023-05-13T07:30:45.944Z,88305.00
2023-05-13T07:33:31.043Z,88301.56
2023-05-13T07:36:16.092Z,88297.78
2023-05-13T07:39:02.071Z,88311.13
2023-05-13T07:41:47.165Z,88310.50
2023-05-13T07:44:32.058Z,88302.13
2023-05-13T07:47:17.284Z,88297.31
2023-05-13T07:50:02.149Z,88296.28
2023-05-13T07:52:47.233Z,88292.84
2023-05-13T07:55:32.270Z,88296.41
2023-05-13T07:58:17.229Z,88298.72
2023-05-13T08:01:02.225Z,88294.16
2023-05-13T08:03:47.331Z,88295.25
2023-05-13T08:06:32.771Z,88291.75
2023-05-13T08:09:17.644Z,88290.22
2023-05-13T08:12:02.722Z,88288.69
2023-05-13T08:14:48.962Z,88286.47
2023-05-13T08:17:34.066Z,88288.59
2023-05-13T08:20:19.238Z,88288.25
2023-05-13T08:23:04.153Z,88288.47
2023-05-13T08:25:49.079Z,88285.88
2023-05-13T08:28:34.023Z,88289.63
2023-05-13T08:31:19.248Z,88273.72
2023-05-13T08:34:03.982Z,88278.31
2023-05-13T08:36:49.114Z,88283.91
2023-05-13T08:39:34.164Z,88282.66
2023-05-13T08:42:19.188Z,88285.00
2023-05-13T08:45:04.142Z,88279.50
2023-05-13T08:47:49.005Z,88278.91
2023-05-13T08:50:33.972Z,88274.16
2023-05-13T08:53:18.934Z,88280.44
2023-05-13T08:56:04.086Z,88285.28
2023-05-13T08:58:49.011Z,88289.72
2023-05-13T09:01:34.145Z,88279.59
2023-05-13T09:04:19.235Z,88288.31
2023-05-13T09:07:04.237Z,88282.69
2023-05-13T09:09:49.419Z,88284.72
2023-05-13T09:12:34.285Z,88289.53
2023-05-13T09:15:19.716Z,88292.78
2023-05-13T09:18:04.612Z,88277.53
2023-05-13T09:20:49.590Z,88279.63
2023-05-13T09:23:34.600Z,88280.50
2023-05-13T09:26:19.551Z,88276.41
2023-05-13T09:29:04.518Z,88275.47
2023-05-13T09:31:49.489Z,88271.66
2023-05-13T09:34:34.612Z,88275.69
2023-05-13T09:37:19.514Z,88273.41
2023-05-13T09:40:04.448Z,88273.13
2023-05-13T09:42:49.335Z,88280.44
2023-05-13T09:45:34.511Z,88274.84
2023-05-13T09:48:19.455Z,88280.78
2023-05-13T09:51:05.511Z,88288.19
2023-05-13T09:53:50.631Z,88276.56
2023-05-13T09:56:35.539Z,88282.56
2023-05-13T09:59:20.526Z,88278.91
2023-05-13T10:02:05.502Z,88287.34
2023-05-13T10:04:50.486Z,88286.66
2023-05-13T10:07:35.487Z,88279.03
2023-05-13T10:10:20.714Z,88276.34
2023-05-13T10:13:05.957Z,88285.69
2023-05-13T10:15:50.856Z,88273.13
2023-05-13T10:18:35.908Z,88287.38
2023-05-13T10:21:20.645Z,88279.88
2023-05-13T10:24:05.556Z,88279.75
2023-05-13T10:26:50.513Z,88281.81
2023-05-13T10:29:35.383Z,88286.22
2023-05-13T10:32:20.424Z,88280.28
2023-05-13T10:35:05.332Z,88278.19
2023-05-13T10:37:50.470Z,88279.44
2023-05-13T10:40:35.345Z,88282.59
2023-05-13T10:43:20.474Z,88277.88
2023-05-13T10:46:05.434Z,88277.84
2023-05-13T10:48:50.334Z,88275.41
2023-05-13T10:51:35.424Z,88267.13
2023-05-13T10:54:20.165Z,88269.44
2023-05-13T10:57:05.160Z,88264.22
2023-05-13T10:59:50.116Z,88260.88
2023-05-13T11:02:35.255Z,88251.16
2023-05-13T11:05:20.218Z,88255.03
2023-05-13T11:08:05.120Z,88247.06
2023-05-13T11:10:50.166Z,88251.69
2023-05-13T11:13:35.197Z,88243.88
2023-05-13T11:16:20.331Z,88244.41
2023-05-13T11:19:05.224Z,88242.84
2023-05-13T11:21:50.229Z,88240.81
2023-05-13T11:24:35.219Z,88241.06
2023-05-13T11:27:20.443Z,88240.81
2023-05-13T11:30:05.444Z,88241.81
2023-05-13T11:32:50.489Z,88241.69
2023-05-13T11:35:35.518Z,88229.84
2023-05-13T11:38:20.432Z,88234.88
2023-05-13T11:41:05.420Z,88232.91
2023-05-13T11:43:50.503Z,88235.03
2023-05-13T11:46:35.491Z,88238.13
2023-05-13T11:49:20.393Z,88237.69
2023-05-13T11:52:05.576Z,88235.88
2023-05-13T11:54:50.497Z,88238.00
2023-05-13T11:57:35.456Z,88236.25
2023-05-13T12:00:20.410Z,88236.94
2023-05-13T12:03:05.438Z,88243.84
2023-05-13T12:05:50.368Z,88237.63
2023-05-13T12:08:35.340Z,88242.31
2023-05-13T12:11:20.490Z,88238.63
2023-05-13T12:14:05.385Z,88233.34
2023-05-13T12:16:50.441Z,88238.00
2023-05-13T12:19:35.405Z,88248.22
2023-05-13T12:22:20.489Z,88252.44
2023-05-13T12:25:05.496Z,88248.03
2023-05-13T12:27:50.353Z,88246.63
2023-05-13T12:30:35.403Z,88253.94
2023-05-13T12:33:20.353Z,88249.75
2023-05-13T12:36:05.258Z,88247.88
2023-05-13T12:38:50.214Z,88253.69
2023-05-13T12:41:35.368Z,88249.94
2023-05-13T12:44:20.193Z,88247.81
2023-05-13T12:47:05.365Z,88252.47
2023-05-13T12:49:50.395Z,88255.63
2023-05-13T12:52:35.345Z,88260.47
2023-05-13T12:55:20.513Z,88263.19
2023-05-13T12:58:05.631Z,88257.34
2023-05-13T13:00:50.481Z,88260.81
2023-05-13T13:03:35.511Z,88273.84
2023-05-13T13:06:20.407Z,88267.38
2023-05-13T13:09:05.386Z,88277.38
2023-05-13T13:11:50.424Z,88274.47
2023-05-13T13:14:35.625Z,88269.53
2023-05-13T13:17:20.467Z,88268.94
2023-05-13T13:20:05.428Z,88277.50
2023-05-13T13:22:50.237Z,88275.09
2023-05-13T13:25:35.227Z,88267.44
2023-05-13T13:28:20.223Z,88274.53
2023-05-13T13:31:05.356Z,88275.09
2023-05-13T13:33:50.340Z,88273.28
2023-05-13T13:36:35.240Z,88273.59
2023-05-13T13:39:20.261Z,88273.72
2023-05-13T13:42:05.198Z,88265.09
2023-05-13T13:44:50.297Z,88267.25
2023-05-13T13:47:35.159Z,88266.38
2023-05-13T13:50:20.129Z,88262.94
2023-05-13T13:53:04.888Z,88258.56
2023-05-13T13:55:49.821Z,88261.97
2023-05-13T13:58:34.875Z,88276.06
2023-05-13T14:01:19.880Z,88267.53
2023-05-13T14:04:04.914Z,88262.81
2023-05-13T14:06:49.696Z,88270.78
2023-05-13T14:09:34.706Z,88267.66
2023-05-13T14:12:19.548Z,88268.31
2023-05-13T14:15:04.402Z,88267.69
2023-05-13T14:17:49.402Z,88256.63
2023-05-13T14:20:34.265Z,88261.19
2023-05-13T14:23:19.050Z,88256.91
2023-05-13T14:26:03.959Z,88264.25
2023-05-13T14:28:49.252Z,88263.56
2023-05-13T14:31:34.286Z,88257.88
2023-05-13T14:34:19.711Z,88265.63
2023-05-13T14:37:04.723Z,88258.72
2023-05-13T14:39:50.362Z,88259.25
2023-05-13T14:42:35.529Z,88256.59
2023-05-13T14:45:20.010Z,88256.06
2023-05-13T14:48:05.167Z,88255.91
2023-05-13T14:50:50.031Z,88251.75
2023-05-13T14:53:35.081Z,88245.19
2023-05-13T14:56:19.914Z,88249.59
2023-05-13T14:59:05.026Z,88245.44
2023-05-13T15:01:49.911Z,88252.31
2023-05-13T15:04:34.911Z,88245.75
2023-05-13T15:07:19.812Z,88259.31
2023-05-13T15:10:04.609Z,88256.25
2023-05-13T15:12:49.637Z,88255.38
2023-05-13T15:15:34.538Z,88258.63
2023-05-13T15:18:19.492Z,88250.66
2023-05-13T15:21:04.314Z,88253.88
2023-05-13T15:23:49.274Z,88256.94
2023-05-13T15:26:34.234Z,88256.81
2023-05-13T15:29:18.932Z,88253.28
2023-05-13T15:32:04.073Z,88254.56
2023-05-13T15:34:48.894Z,88258.28
2023-05-13T15:37:33.935Z,88257.78
2023-05-13T15:40:18.841Z,88253.72
2023-05-13T15:43:03.891Z,88256.75
2023-05-13T15:45:48.766Z,88253.84
2023-05-13T15:48:33.909Z,88264.19
2023-05-13T15:51:18.724Z,88254.97
2023-05-13T15:54:03.815Z,88256.53
2023-05-13T15:56:48.810Z,88253.66
2023-05-13T15:59:33.766Z,88253.72
2023-05-13T16:02:18.847Z,88250.00
2023-05-13T16:05:03.843Z,88257.88
2023-05-13T16:07:48.904Z,88257.19
2023-05-13T16:10:33.762Z,88259.19
2023-05-13T16:13:18.883Z,88251.69
2023-05-13T16:16:03.812Z,88251.53
2023-05-13T16:18:48.948Z,88255.78
2023-05-13T16:21:33.809Z,88257.81
2023-05-13T16:24:18.819Z,88255.50
2023-05-13T16:27:03.936Z,88260.81
2023-05-13T16:29:48.806Z,88264.47
2023-05-13T16:32:33.944Z,88258.22
2023-05-13T16:35:18.786Z,88263.31
2023-05-13T16:38:03.868Z,88263.84
2023-05-13T16:40:48.933Z,88259.63
2023-05-13T16:43:34.004Z,88262.19
2023-05-13T16:46:19.056Z,88268.47
2023-05-13T16:49:04.194Z,88262.97
2023-05-13T16:51:49.194Z,88266.31
2023-05-13T16:54:34.376Z,88269.00
2023-05-13T16:57:19.219Z,88264.53
2023-05-13T17:00:04.141Z,88257.56
2023-05-13T17:02:49.280Z,88259.56
2023-05-13T17:05:34.177Z,88262.22
2023-05-13T17:08:19.172Z,88257.28
2023-05-13T17:11:04.309Z,88252.66
2023-05-13T17:13:49.239Z,88251.50
2023-05-13T17:16:34.375Z,88255.50
2023-05-13T17:19:19.302Z,88256.44
2023-05-13T17:22:04.415Z,88253.50
2023-05-13T17:24:49.345Z,88259.13
2023-05-13T17:27:34.145Z,88251.44
2023-05-13T17:30:19.093Z,88259.84
2023-05-13T17:33:04.078Z,88260.47
2023-05-13T17:35:49.212Z,88257.28
2023-05-13T17:38:34.149Z,88267.66
2023-05-13T17:41:19.326Z,88267.72
2023-05-13T17:44:04.153Z,88258.97
2023-05-13T17:46:49.234Z,88262.06
2023-05-13T17:49:34.350Z,88254.50
2023-05-13T17:52:19.174Z,88260.41
2023-05-13T17:55:04.058Z,88268.72
2023-05-13T17:57:48.998Z,88270.97
2023-05-13T18:00:33.986Z,88277.88
2023-05-13T18:03:18.853Z,88271.44
2023-05-13T18:06:03.859Z,88270.03
2023-05-13T18:08:48.684Z,88274.97
2023-05-13T18:11:33.755Z,88275.50
2023-05-13T18:14:18.724Z,88278.81
2023-05-13T18:17:03.665Z,88279.91
2023-05-13T18:19:48.726Z,88279.75
2023-05-13T18:22:33.616Z,88283.75
2023-05-13T18:25:18.629Z,88285.91
2023-05-13T18:28:03.582Z,88277.59
2023-05-13T18:30:48.718Z,88284.88
2023-05-13T18:33:33.577Z,88291.94
2023-05-13T18:36:18.674Z,88285.75
2023-05-13T18:39:03.625Z,88297.41
2023-05-13T18:41:48.595Z,88305.31
2023-05-13T18:44:33.621Z,88302.31
2023-05-13T18:47:18.515Z,88301.63
2023-05-13T18:50:03.526Z,88308.28
2023-05-13T18:52:48.547Z,88300.69
2023-05-13T18:55:33.690Z,88303.03
2023-05-13T18:58:18.761Z,88308.75
2023-05-13T19:01:03.744Z,88306.47
2023-05-13T19:03:48.785Z,88313.41
2023-05-13T19:06:33.585Z,88309.94
2023-05-13T19:09:18.579Z,88311.75
2023-05-13T19:12:03.586Z,88311.44
2023-05-13T19:14:48.512Z,88316.38
2023-05-13T19:17:33.529Z,88325.31
2023-05-13T19:20:18.583Z,88324.78
2023-05-13T19:23:03.508Z,88324.97
2023-05-13T19:25:48.445Z,88332.44
2023-05-13T19:28:34.119Z,88339.91
2023-05-13T19:31:19.079Z,88338.88
2023-05-13T19:34:04.027Z,88341.81
2023-05-13T19:36:49.132Z,88344.56
2023-05-13T19:39:34.136Z,88347.38
2023-05-13T19:42:18.986Z,88344.25
2023-05-13T19:45:03.969Z,88347.69
2023-05-13T19:47:49.077Z,88350.16
2023-05-13T19:50:34.027Z,88363.94
2023-05-13T19:53:19.111Z,88356.25
2023-05-13T19:56:04.051Z,88352.25
2023-05-13T19:58:49.189Z,88346.31
2023-05-13T20:01:34.107Z,88348.75
2023-05-13T20:04:19.017Z,88342.81
2023-05-13T20:07:04.016Z,88344.06
2023-05-13T20:09:48.967Z,88349.81
2023-05-13T20:12:33.940Z,88338.31
2023-05-13T20:15:18.869Z,88344.09
2023-05-13T20:18:04.073Z,88344.16
2023-05-13T20:20:48.887Z,88348.72
2023-05-13T20:23:33.900Z,88356.94
2023-05-13T20:26:18.929Z,88359.03
2023-05-13T20:29:03.855Z,88364.78
2023-05-13T20:31:48.992Z,88371.59
2023-05-13T20:34:33.721Z,88371.94
2023-05-13T20:37:20.050Z,88368.09
2023-05-13T20:40:06.089Z,88373.16
2023-05-13T20:42:51.125Z,88361.47
2023-05-13T20:45:36.152Z,88360.63
2023-05-13T20:48:21.139Z,88350.84
2023-05-13T20:51:06.185Z,88352.41
2023-05-13T20:53:51.216Z,88352.41
2023-05-13T20:56:36.446Z,88358.34
2023-05-13T20:59:21.364Z,88359.22
2023-05-13T21:02:06.441Z,88364.28
2023-05-13T21:04:51.424Z,88358.38
2023-05-13T21:07:36.408Z,88356.25
2023-05-13T21:10:21.883Z,88357.31
2023-05-13T21:13:06.751Z,88359.94
2023-05-13T21:15:51.732Z,88358.53
2023-05-13T21:18:36.536Z,88352.78
2023-05-13T21:21:27.699Z,88356.94
2023-05-13T21:24:12.834Z,88352.97
2023-05-13T21:26:57.712Z,88357.31
2023-05-13T21:29:42.892Z,88359.38
2023-05-13T21:32:27.865Z,88352.75
2023-05-13T21:35:13.000Z,88354.88
2023-05-13T21:38:08.716Z,88348.94
2023-05-13T21:40:56.680Z,88348.06
2023-05-13T21:43:41.797Z,88354.69
2023-05-13T21:46:26.649Z,88348.09
2023-05-13T21:49:11.850Z,88347.91
2023-05-13T21:51:56.818Z,88353.31
2023-05-13T21:54:41.805Z,88349.63
2023-05-13T21:57:26.762Z,88358.16
2023-05-13T22:00:12.014Z,88349.44
2023-05-13T22:02:57.207Z,88353.28
2023-05-13T22:05:41.965Z,88354.50
2023-05-13T22:08:27.032Z,88351.72
2023-05-13T22:11:12.023Z,88350.31
2023-05-13T22:13:57.138Z,88357.94
2023-05-13T22:16:42.157Z,88358.75
2023-05-13T22:19:27.143Z,88359.97
2023-05-13T22:22:12.214Z,88363.41
2023-05-13T22:24:57.267Z,88362.22
2023-05-13T22:27:42.356Z,88363.59
2023-05-13T22:30:27.373Z,88350.38
2023-05-13T22:33:12.641Z,88360.31
2023-05-13T22:35:57.403Z,88353.38
2023-05-13T22:38:42.581Z,88358.41
2023-05-13T22:41:27.436Z,88358.47
2023-05-13T22:44:12.478Z,88359.69
2023-05-13T22:46:57.392Z,88359.00
2023-05-13T22:49:42.290Z,88350.50
2023-05-13T22:52:27.289Z,88356.41
2023-05-13T22:55:14.198Z,88355.38
2023-05-13T22:57:59.331Z,88352.06
2023-05-13T23:00:44.270Z,88347.88
2023-05-13T23:03:29.327Z,88344.56
2023-05-13T23:06:14.410Z,88345.97
2023-05-13T23:08:59.345Z,88344.56
2023-05-13T23:11:44.276Z,88343.88
2023-05-13T23:14:29.304Z,88344.56
2023-05-13T23:17:14.346Z,88341.44
2023-05-13T23:19:59.239Z,88348.75
2023-05-13T23:22:44.020Z,88342.13
2023-05-13T23:25:28.939Z,88338.97
2023-05-13T23:28:14.001Z,88339.81
2023-05-13T23:30:59.177Z,88330.06
2023-05-13T23:33:44.169Z,88334.91
2023-05-13T23:36:29.399Z,88329.84
2023-05-13T23:39:14.411Z,88320.97
2023-05-13T23:41:59.663Z,88324.81
2023-05-13T23:44:44.735Z,88321.31
2023-05-13T23:47:29.871Z,88313.31
2023-05-13T23:50:14.659Z,88314.72
2023-05-13T23:52:59.581Z,88311.09
2023-05-13T23:55:44.818Z,88313.50
2023-05-13T23:58:29.750Z,88306.72
